Time;durP1;ratioP1;P1;durP2;ratioP2;P2;SDS_P1;SDS_P2;PMS_P1;PMS_P2;Temp;Humidity;BMP_temperature;BMP_pressure;BME280_temperature;BME280_humidity;BME280_pressure;Samples;Min_cycle;Max_cycle;Signal;HPM_P1;HPM_P2
2023/10/28 00:01:17;;;;;;;33.05;19.08;;;11.10;99.90;;;;;;5080208;28;20031;-63
2023/10/28 00:03:42;;;;;;;34.10;18.55;;;11.20;99.90;;;;;;5078484;28;20032;-63
2023/10/28 00:06:08;;;;;;;37.42;21.40;;;11.20;99.90;;;;;;5081230;28;20613;-64
2023/10/28 00:08:35;;;;;;;36.63;21.60;;;11.20;99.90;;;;;;5075700;28;20123;-63
2023/10/28 00:11:02;;;;;;;39.90;21.70;;;11.20;99.90;;;;;;5080336;28;20032;-63
2023/10/28 00:13:30;;;;;;;39.95;21.60;;;11.20;99.90;;;;;;5081848;28;20040;-63
2023/10/28 00:15:56;;;;;;;34.08;20.80;;;11.20;99.90;;;;;;5061154;28;20105;-63
2023/10/28 00:18:21;;;;;;;45.67;24.67;;;11.20;99.90;;;;;;5081347;28;20609;-63
2023/10/28 00:20:47;;;;;;;42.70;24.42;;;11.20;99.90;;;;;;5077580;28;20055;-63
2023/10/28 00:23:16;;;;;;;43.33;25.63;;;11.20;99.90;;;;;;5061163;28;20044;-63
2023/10/28 00:25:42;;;;;;;44.15;26.17;;;11.20;99.90;;;;;;5080076;28;20056;-62
2023/10/28 00:28:09;;;;;;;47.58;28.55;;;11.20;99.90;;;;;;5082046;28;20036;-63
2023/10/28 00:30:38;;;;;;;47.55;28.17;;;11.20;99.90;;;;;;5062779;28;20070;-63
2023/10/28 00:33:04;;;;;;;46.08;27.67;;;11.20;99.90;;;;;;5063228;28;20553;-63
2023/10/28 00:35:30;;;;;;;44.47;27.45;;;11.20;99.90;;;;;;5070434;28;20048;-63
2023/10/28 00:37:56;;;;;;;46.75;28.15;;;11.20;99.90;;;;;;5078649;28;20036;-63
2023/10/28 00:40:29;;;;;;;50.85;29.33;;;11.20;99.90;;;;;;5081383;28;20048;-63
2023/10/28 00:42:56;;;;;;;48.30;28.27;;;11.20;99.90;;;;;;5079023;28;20040;-63
2023/10/28 00:45:21;;;;;;;51.20;30.60;;;11.20;99.90;;;;;;5078480;28;20733;-64
2023/10/28 00:47:53;;;;;;;45.90;28.27;;;11.20;99.90;;;;;;5081116;28;20071;-63
2023/10/28 00:50:23;;;;;;;49.72;29.10;;;11.10;99.90;;;;;;5086260;28;20551;-63
2023/10/28 00:52:53;;;;;;;57.75;30.30;;;11.20;99.90;;;;;;5085042;28;20043;-63
2023/10/28 00:55:22;;;;;;;51.17;29.85;;;11.10;99.90;;;;;;5082993;28;20040;-63
2023/10/28 00:57:48;;;;;;;54.80;30.00;;;11.10;99.90;;;;;;5082587;28;20729;-63
2023/10/28 01:00:32;;;;;;;52.85;29.58;;;11.10;99.90;;;;;;5084117;28;22891;-63
2023/10/28 01:02:58;;;;;;;50.65;29.30;;;11.10;99.90;;;;;;5070229;28;20036;-63
2023/10/28 01:05:23;;;;;;;48.55;29.58;;;11.10;99.90;;;;;;5082663;28;20670;-62
2023/10/28 01:07:50;;;;;;;54.15;30.25;;;11.10;99.90;;;;;;5084420;28;20043;-63
2023/10/28 01:10:33;;;;;;;52.20;31.02;;;11.10;99.90;;;;;;5083859;28;20043;-64
2023/10/28 01:12:59;;;;;;;57.40;31.35;;;11.10;99.90;;;;;;5064389;28;20036;-63
2023/10/28 01:15:26;;;;;;;48.60;29.13;;;11.00;99.90;;;;;;5081376;28;20044;-63
2023/10/28 01:17:52;;;;;;;48.47;29.50;;;11.00;99.90;;;;;;5083634;28;21791;-63
2023/10/28 01:20:18;;;;;;;43.83;27.10;;;11.00;99.90;;;;;;5080830;28;20067;-63
2023/10/28 01:22:44;;;;;;;48.03;28.55;;;11.00;99.90;;;;;;5082731;28;20071;-63
2023/10/28 01:25:10;;;;;;;50.90;28.33;;;11.00;99.90;;;;;;5066565;28;20036;-63
2023/10/28 01:27:38;;;;;;;52.97;29.35;;;11.00;99.90;;;;;;5082936;28;20044;-63
2023/10/28 01:30:05;;;;;;;52.25;28.23;;;10.90;99.90;;;;;;5082543;28;20039;-63
2023/10/28 01:32:31;;;;;;;56.88;30.45;;;10.90;99.90;;;;;;5082102;28;20493;-63
2023/10/28 01:34:58;;;;;;;53.38;29.27;;;10.90;99.90;;;;;;5082029;28;20044;-63
2023/10/28 01:37:24;;;;;;;49.60;28.38;;;10.90;99.90;;;;;;5083690;28;20047;-64
2023/10/28 01:39:54;;;;;;;56.45;31.25;;;10.90;99.90;;;;;;5067252;28;20047;-63
2023/10/28 01:42:21;;;;;;;49.20;28.58;;;10.80;99.90;;;;;;5083527;28;20051;-63
2023/10/28 01:44:48;;;;;;;54.95;30.90;;;10.80;99.90;;;;;;5064859;28;20079;-63
2023/10/28 01:47:14;;;;;;;53.92;30.65;;;10.80;99.90;;;;;;5082895;28;20760;-63
2023/10/28 01:49:42;;;;;;;55.75;32.33;;;10.80;99.90;;;;;;5078559;28;20063;-62
2023/10/28 01:52:09;;;;;;;51.03;28.98;;;10.80;99.90;;;;;;5064905;28;20154;-62
2023/10/28 01:54:35;;;;;;;47.65;28.85;;;10.80;99.90;;;;;;5083249;28;20055;-63
2023/10/28 01:57:09;;;;;;;54.28;30.15;;;10.80;99.90;;;;;;5080815;28;20071;-63
2023/10/28 01:59:37;;;;;;;53.50;29.05;;;10.80;99.90;;;;;;5097862;28;20063;-63
2023/10/28 02:02:03;;;;;;;56.65;30.83;;;10.70;99.90;;;;;;5082188;28;20047;-63
2023/10/28 02:04:33;;;;;;;56.38;31.52;;;10.80;99.90;;;;;;5081395;28;20116;-63
2023/10/28 02:06:59;;;;;;;53.90;30.00;;;10.70;99.90;;;;;;5077664;28;20046;-63
2023/10/28 02:09:28;;;;;;;51.45;30.85;;;10.70;99.90;;;;;;5075848;28;20091;-63
2023/10/28 02:11:55;;;;;;;48.28;28.80;;;10.70;99.90;;;;;;5079225;28;20430;-62
2023/10/28 02:14:23;;;;;;;53.25;30.10;;;10.70;99.90;;;;;;5082190;28;21994;-63
2023/10/28 02:16:49;;;;;;;51.90;27.90;;;10.70;99.90;;;;;;5083162;28;20150;-63
2023/10/28 02:19:17;;;;;;;53.78;29.10;;;10.70;99.90;;;;;;5065514;28;20032;-63
2023/10/28 02:21:44;;;;;;;47.25;25.98;;;10.70;99.90;;;;;;5100171;28;20054;-65
2023/10/28 02:24:10;;;;;;;45.42;26.48;;;10.70;99.90;;;;;;5064110;28;20036;-63
2023/10/28 02:26:35;;;;;;;48.08;26.92;;;10.70;99.90;;;;;;5082308;28;20044;-63
2023/10/28 02:29:01;;;;;;;47.50;25.77;;;10.70;99.90;;;;;;5081984;28;20068;-62
2023/10/28 02:31:28;;;;;;;48.90;26.50;;;10.60;99.90;;;;;;5078514;28;20036;-62
2023/10/28 02:33:54;;;;;;;47.25;27.00;;;10.60;99.90;;;;;;5080540;28;20048;-63
2023/10/28 02:36:19;;;;;;;45.80;26.83;;;10.60;99.90;;;;;;5079715;28;20507;-63
2023/10/28 02:38:45;;;;;;;40.10;24.35;;;10.70;99.90;;;;;;5078774;28;20044;-63
2023/10/28 02:41:12;;;;;;;45.88;26.80;;;10.60;99.90;;;;;;5079550;28;20036;-62
2023/10/28 02:43:39;;;;;;;41.22;24.40;;;10.60;99.90;;;;;;5084191;28;20036;-63
2023/10/28 02:46:06;;;;;;;39.65;22.92;;;10.60;99.90;;;;;;5081547;28;20051;-63
2023/10/28 02:48:32;;;;;;;45.80;24.42;;;10.60;99.90;;;;;;5082618;28;20047;-63
2023/10/28 02:51:05;;;;;;;40.40;24.40;;;10.60;99.90;;;;;;5064588;28;20047;-63
2023/10/28 02:53:32;;;;;;;44.70;24.33;;;10.60;99.90;;;;;;5082662;28;20052;-62
2023/10/28 02:56:01;;;;;;;43.28;22.63;;;10.60;99.90;;;;;;5081469;28;20067;-63
2023/10/28 02:58:28;;;;;;;43.80;23.95;;;10.60;99.90;;;;;;5081175;28;20043;-63
2023/10/28 03:00:56;;;;;;;37.72;22.40;;;10.50;99.90;;;;;;5065084;28;20543;-63
2023/10/28 03:03:22;;;;;;;37.80;21.85;;;10.50;99.90;;;;;;5081269;28;20046;-63
2023/10/28 03:05:49;;;;;;;45.50;22.20;;;10.40;99.90;;;;;;5082583;28;20032;-63
2023/10/28 03:08:16;;;;;;;34.88;21.42;;;10.40;99.90;;;;;;5065530;28;20040;-63
2023/10/28 03:10:42;;;;;;;35.22;20.27;;;10.40;99.90;;;;;;5078544;28;20036;-62
2023/10/28 03:13:08;;;;;;;38.78;21.52;;;10.30;99.90;;;;;;5079950;28;20044;-63
2023/10/28 03:15:34;;;;;;;39.20;22.02;;;10.30;99.90;;;;;;5083009;28;20547;-63
2023/10/28 03:18:00;;;;;;;37.30;21.05;;;10.30;99.90;;;;;;5081338;28;20036;-63
2023/10/28 03:20:26;;;;;;;35.10;18.67;;;10.30;99.90;;;;;;5082098;28;20388;-62
2023/10/28 03:22:51;;;;;;;31.88;20.08;;;10.30;99.90;;;;;;5071214;28;20084;-63
2023/10/28 03:25:17;;;;;;;34.65;19.42;;;10.20;99.90;;;;;;5083803;28;20040;-62
2023/10/28 03:27:43;;;;;;;36.03;20.42;;;10.20;99.90;;;;;;5077767;28;20067;-63
2023/10/28 03:30:09;;;;;;;35.45;19.67;;;10.20;99.90;;;;;;5043458;28;20062;-63
2023/10/28 03:32:34;;;;;;;38.85;20.77;;;10.20;99.90;;;;;;5076088;28;20132;-63
2023/10/28 03:35:00;;;;;;;30.52;18.45;;;10.20;99.90;;;;;;5081109;28;20174;-63
2023/10/28 03:37:26;;;;;;;33.55;19.70;;;10.10;99.90;;;;;;5079555;28;20055;-63
2023/10/28 03:39:52;;;;;;;38.65;20.60;;;10.10;99.90;;;;;;5081041;28;20677;-63
2023/10/28 03:42:18;;;;;;;26.85;16.60;;;10.10;99.90;;;;;;5059018;28;20043;-63
2023/10/28 03:44:44;;;;;;;34.00;18.98;;;10.10;99.90;;;;;;5083178;28;20044;-62
2023/10/28 03:47:09;;;;;;;38.25;19.92;;;10.10;99.90;;;;;;5078934;28;20036;-62
2023/10/28 03:49:36;;;;;;;36.25;20.00;;;10.00;99.90;;;;;;5063275;28;20572;-63
2023/10/28 03:52:02;;;;;;;30.73;18.17;;;10.00;99.90;;;;;;5080547;28;20270;-63
2023/10/28 03:54:29;;;;;;;28.38;17.20;;;10.00;99.90;;;;;;5091323;28;20041;-63
2023/10/28 03:56:55;;;;;;;35.03;19.75;;;10.00;99.90;;;;;;5081160;28;20044;-63
2023/10/28 03:59:21;;;;;;;28.88;17.75;;;10.00;99.90;;;;;;5077739;28;20062;-63
2023/10/28 04:01:47;;;;;;;34.10;17.85;;;9.90;99.90;;;;;;5079271;28;20050;-62
2023/10/28 04:04:12;;;;;;;26.60;16.02;;;9.90;99.90;;;;;;5074019;28;20039;-63
2023/10/28 04:06:38;;;;;;;28.35;15.80;;;9.90;99.90;;;;;;5077851;28;20062;-63
2023/10/28 04:09:04;;;;;;;31.48;16.65;;;9.90;99.90;;;;;;5079772;28;20051;-63
2023/10/28 04:11:29;;;;;;;32.63;16.70;;;9.80;99.90;;;;;;5077683;28;20047;-62
2023/10/28 04:13:55;;;;;;;31.33;17.42;;;9.80;99.90;;;;;;5063007;28;20510;-63
2023/10/28 04:16:21;;;;;;;34.13;17.50;;;9.80;99.90;;;;;;5080300;28;20040;-63
2023/10/28 04:18:48;;;;;;;35.17;17.67;;;9.80;99.90;;;;;;5076423;28;20665;-62
2023/10/28 04:21:14;;;;;;;30.02;17.23;;;9.80;99.90;;;;;;5088271;28;20040;-63
2023/10/28 04:23:39;;;;;;;29.35;16.40;;;9.70;99.90;;;;;;5063758;28;20040;-62
2023/10/28 04:26:05;;;;;;;25.52;15.65;;;9.70;99.90;;;;;;5082020;28;20104;-62
2023/10/28 04:28:31;;;;;;;31.23;16.27;;;9.80;99.90;;;;;;5080525;28;20046;-63
2023/10/28 04:30:58;;;;;;;32.20;16.83;;;9.80;99.90;;;;;;5060470;28;20074;-62
2023/10/28 04:33:27;;;;;;;28.40;16.33;;;9.70;99.90;;;;;;5080707;28;20146;-63
2023/10/28 04:35:53;;;;;;;30.15;18.17;;;9.70;99.90;;;;;;5079608;28;20043;-63
2023/10/28 04:38:19;;;;;;;32.20;16.17;;;9.70;99.90;;;;;;5080521;28;20036;-63
2023/10/28 04:40:46;;;;;;;26.58;15.43;;;9.70;99.90;;;;;;5079219;28;20098;-62
2023/10/28 04:43:11;;;;;;;30.77;16.80;;;9.70;99.90;;;;;;5079195;28;20048;-62
2023/10/28 04:45:43;;;;;;;24.45;15.43;;;9.70;99.90;;;;;;5064979;28;20048;-63
2023/10/28 04:48:10;;;;;;;30.83;15.30;;;9.70;99.90;;;;;;5062650;28;20051;-63
2023/10/28 04:50:36;;;;;;;27.25;16.40;;;9.70;99.90;;;;;;5082259;28;20048;-63
2023/10/28 04:53:02;;;;;;;30.02;16.42;;;9.70;99.90;;;;;;5079576;28;20131;-63
2023/10/28 04:55:28;;;;;;;30.20;16.83;;;9.70;99.90;;;;;;5077204;28;20040;-62
2023/10/28 04:57:54;;;;;;;31.90;16.73;;;9.60;99.90;;;;;;5061886;28;20029;-62
2023/10/28 05:00:20;;;;;;;31.58;17.80;;;9.60;99.90;;;;;;5079879;28;20039;-62
2023/10/28 05:02:45;;;;;;;29.88;16.35;;;9.70;99.90;;;;;;5078833;28;20060;-62
2023/10/28 05:05:13;;;;;;;33.55;17.25;;;9.70;99.90;;;;;;5079600;28;20079;-62
2023/10/28 05:07:39;;;;;;;29.40;16.88;;;9.70;99.90;;;;;;5078137;28;20055;-63
2023/10/28 05:10:06;;;;;;;30.50;17.83;;;9.70;99.90;;;;;;5080865;28;20071;-63
2023/10/28 05:12:32;;;;;;;33.75;19.42;;;9.70;99.90;;;;;;5081454;28;20230;-63
2023/10/28 05:14:59;;;;;;;29.83;17.40;;;9.70;99.90;;;;;;5079833;28;20044;-62
2023/10/28 05:17:25;;;;;;;31.13;17.90;;;9.70;99.90;;;;;;5081655;28;20036;-63
2023/10/28 05:19:51;;;;;;;34.30;18.75;;;9.70;99.90;;;;;;5082297;28;20047;-63
2023/10/28 05:22:19;;;;;;;32.15;18.70;;;9.70;99.90;;;;;;5081728;28;20040;-63
2023/10/28 05:24:47;;;;;;;32.28;20.05;;;9.70;99.90;;;;;;5076561;28;21016;-63
2023/10/28 05:27:13;;;;;;;33.85;17.65;;;9.70;99.90;;;;;;5081112;28;20116;-62
2023/10/28 05:29:39;;;;;;;36.78;19.05;;;9.70;99.90;;;;;;5045985;28;20493;-63
2023/10/28 05:32:05;;;;;;;36.65;19.02;;;9.70;99.90;;;;;;5077006;28;20047;-63
2023/10/28 05:34:30;;;;;;;34.08;19.58;;;9.70;99.90;;;;;;5066085;28;20102;-63
2023/10/28 05:36:56;;;;;;;33.50;18.02;;;9.70;99.90;;;;;;5057788;28;20870;-62
2023/10/28 05:39:22;;;;;;;32.35;18.73;;;9.70;99.90;;;;;;5081891;28;20051;-63
2023/10/28 05:41:48;;;;;;;34.67;19.48;;;9.70;99.90;;;;;;5079611;28;20609;-63
2023/10/28 05:44:14;;;;;;;35.88;18.98;;;9.70;99.90;;;;;;5066081;28;20035;-63
2023/10/28 05:46:40;;;;;;;37.83;20.38;;;9.70;99.90;;;;;;5083024;28;21662;-62
2023/10/28 05:49:06;;;;;;;35.00;19.50;;;9.70;99.90;;;;;;5093136;28;20040;-63
2023/10/28 05:51:36;;;;;;;39.45;20.20;;;9.70;99.90;;;;;;5081757;28;20042;-63
2023/10/28 05:54:03;;;;;;;35.20;18.70;;;9.70;99.90;;;;;;5084900;28;20044;-63
2023/10/28 05:56:29;;;;;;;36.53;21.00;;;9.70;99.90;;;;;;5081309;28;20051;-62
2023/10/28 05:58:57;;;;;;;32.53;19.92;;;9.70;99.90;;;;;;5081350;28;20411;-63
2023/10/28 06:01:23;;;;;;;44.83;21.23;;;9.70;99.90;;;;;;5084357;28;20676;-63
2023/10/28 06:03:49;;;;;;;40.63;19.80;;;9.80;99.90;;;;;;5066243;28;20060;-63
2023/10/28 06:06:15;;;;;;;36.90;21.58;;;9.80;99.90;;;;;;5081533;28;20131;-63
2023/10/28 06:08:41;;;;;;;43.05;22.42;;;9.80;99.90;;;;;;5083185;28;20513;-63
2023/10/28 06:11:09;;;;;;;43.85;22.25;;;9.90;99.90;;;;;;5082315;28;20082;-63
2023/10/28 06:13:36;;;;;;;45.97;23.45;;;9.90;99.90;;;;;;5082476;28;20067;-63
2023/10/28 06:16:01;;;;;;;37.60;21.58;;;9.90;99.90;;;;;;5063083;28;20071;-62
2023/10/28 06:18:29;;;;;;;40.70;22.13;;;10.00;99.90;;;;;;5080514;28;20068;-62
2023/10/28 06:20:55;;;;;;;45.97;22.08;;;10.00;99.90;;;;;;5081687;28;20096;-62
2023/10/28 06:23:21;;;;;;;38.88;21.38;;;10.00;99.90;;;;;;5082865;28;20043;-62
2023/10/28 06:25:47;;;;;;;44.38;23.33;;;10.10;99.90;;;;;;5076151;28;20532;-62
2023/10/28 06:28:12;;;;;;;37.60;21.63;;;10.00;99.90;;;;;;5081505;28;20051;-63
2023/10/28 06:30:50;;;;;;;47.45;23.55;;;10.10;99.90;;;;;;5082753;28;20051;-62
2023/10/28 06:33:17;;;;;;;45.10;23.63;;;10.10;99.90;;;;;;5079777;28;20043;-62
2023/10/28 06:35:44;;;;;;;48.55;22.92;;;10.20;99.90;;;;;;5081782;28;20044;-62
2023/10/28 06:38:10;;;;;;;42.95;22.40;;;10.20;99.90;;;;;;5080566;28;20044;-62
2023/10/28 06:40:37;;;;;;;39.88;22.42;;;10.20;99.90;;;;;;5082432;28;20068;-62
2023/10/28 06:43:03;;;;;;;40.55;22.05;;;10.30;99.90;;;;;;5077377;28;20040;-63
2023/10/28 06:45:29;;;;;;;42.15;21.88;;;10.30;99.90;;;;;;5047484;28;20188;-62
2023/10/28 06:47:55;;;;;;;41.92;20.98;;;10.30;99.90;;;;;;5060762;28;20495;-62
2023/10/28 06:50:21;;;;;;;41.53;22.50;;;10.30;99.90;;;;;;5082436;28;20044;-62
2023/10/28 06:52:50;;;;;;;38.47;20.55;;;10.40;99.90;;;;;;5082853;28;20052;-62
2023/10/28 06:55:17;;;;;;;35.97;20.98;;;10.40;99.90;;;;;;5062210;28;20048;-62
2023/10/28 06:57:44;;;;;;;35.30;19.35;;;10.40;99.90;;;;;;5057453;28;20147;-62
2023/10/28 07:00:15;;;;;;;34.38;18.95;;;10.40;99.90;;;;;;5083205;28;20043;-62
2023/10/28 07:02:42;;;;;;;38.30;19.80;;;10.50;99.90;;;;;;5082804;28;20067;-62
2023/10/28 07:05:11;;;;;;;36.05;19.13;;;10.50;99.90;;;;;;5064442;28;20576;-62
2023/10/28 07:07:37;;;;;;;34.35;20.35;;;10.60;99.90;;;;;;5080347;28;20040;-62
2023/10/28 07:10:04;;;;;;;32.67;19.05;;;10.50;99.90;;;;;;5087781;28;20040;-62
2023/10/28 07:12:30;;;;;;;33.42;19.70;;;10.60;99.90;;;;;;5081749;28;20209;-62
2023/10/28 07:14:56;;;;;;;30.35;17.35;;;10.60;99.90;;;;;;5086786;28;20535;-62
2023/10/28 07:17:22;;;;;;;31.63;18.00;;;10.60;99.90;;;;;;5084572;28;20040;-62
2023/10/28 07:19:49;;;;;;;30.48;15.98;;;10.60;99.90;;;;;;5084295;28;20045;-62
2023/10/28 07:22:19;;;;;;;29.88;17.55;;;10.60;99.90;;;;;;5079745;28;20040;-62
2023/10/28 07:24:46;;;;;;;29.08;16.33;;;10.70;99.90;;;;;;5079201;28;20041;-62
2023/10/28 07:27:12;;;;;;;25.25;16.05;;;10.70;99.90;;;;;;5083870;28;20132;-62
2023/10/28 07:29:38;;;;;;;28.30;16.05;;;10.70;99.90;;;;;;5084025;28;20079;-62
2023/10/28 07:32:09;;;;;;;29.30;15.93;;;10.70;99.90;;;;;;5083661;28;20516;-62
2023/10/28 07:34:35;;;;;;;26.92;16.42;;;10.70;99.90;;;;;;5078183;28;20399;-62
2023/10/28 07:37:03;;;;;;;28.45;15.35;;;10.70;99.90;;;;;;5084667;28;20052;-62
2023/10/28 07:39:29;;;;;;;31.35;16.15;;;10.80;99.90;;;;;;5080610;28;20036;-62
2023/10/28 07:41:56;;;;;;;23.65;15.65;;;10.80;99.90;;;;;;5079455;28;20512;-62
2023/10/28 07:44:22;;;;;;;26.25;15.07;;;10.80;99.90;;;;;;5093185;28;20132;-62
2023/10/28 07:46:48;;;;;;;23.15;13.40;;;10.90;99.90;;;;;;5084565;28;20101;-62
2023/10/28 07:49:13;;;;;;;28.00;14.40;;;10.90;99.90;;;;;;5081755;28;20023;-62
2023/10/28 07:51:39;;;;;;;25.88;13.98;;;10.90;99.90;;;;;;5066285;28;20068;-62
2023/10/28 07:54:07;;;;;;;24.70;13.80;;;10.90;99.90;;;;;;5063670;28;20071;-62
2023/10/28 07:56:33;;;;;;;21.83;13.35;;;11.00;99.90;;;;;;5078213;28;20082;-62
2023/10/28 07:59:02;;;;;;;20.23;11.90;;;11.00;99.90;;;;;;5077766;28;20043;-62
2023/10/28 08:01:31;;;;;;;21.90;11.93;;;11.10;99.90;;;;;;5076099;28;20048;-62
2023/10/28 08:03:57;;;;;;;17.50;11.00;;;11.10;99.90;;;;;;5075674;28;20036;-62
2023/10/28 08:06:23;;;;;;;22.13;11.43;;;11.10;99.90;;;;;;5079141;28;20577;-62
2023/10/28 08:08:52;;;;;;;19.45;11.18;;;11.20;99.90;;;;;;5077811;28;20056;-62
2023/10/28 08:11:19;;;;;;;19.13;11.15;;;11.20;99.90;;;;;;5085304;28;20048;-62
2023/10/28 08:13:44;;;;;;;19.70;12.25;;;11.20;99.90;;;;;;5080922;28;20040;-62
2023/10/28 08:16:11;;;;;;;15.15;9.90;;;11.20;99.90;;;;;;5078693;28;20114;-63
2023/10/28 08:18:40;;;;;;;21.40;11.13;;;11.30;99.90;;;;;;5080321;28;20048;-62
2023/10/28 08:21:07;;;;;;;16.48;9.82;;;11.30;99.90;;;;;;5082423;28;20063;-62
2023/10/28 08:23:33;;;;;;;16.30;10.10;;;11.30;99.90;;;;;;5082768;28;20071;-62
2023/10/28 08:25:59;;;;;;;16.73;9.52;;;11.30;99.90;;;;;;5062969;28;20094;-61
2023/10/28 08:28:28;;;;;;;14.98;9.13;;;11.30;99.90;;;;;;5078355;28;20048;-62
2023/10/28 08:30:54;;;;;;;20.25;9.55;;;11.30;99.90;;;;;;5077763;28;20043;-62
2023/10/28 08:33:20;;;;;;;14.38;9.20;;;11.30;99.90;;;;;;5082039;28;20044;-62
2023/10/28 08:35:47;;;;;;;18.48;9.05;;;11.30;99.90;;;;;;5082957;28;20093;-62
2023/10/28 08:38:17;;;;;;;13.95;8.98;;;11.30;99.90;;;;;;5078931;28;20410;-62
2023/10/28 08:40:46;;;;;;;16.20;9.60;;;11.30;99.90;;;;;;5058133;28;20060;-62
2023/10/28 08:43:19;;;;;;;13.77;8.85;;;11.30;99.90;;;;;;5081016;28;20386;-62
2023/10/28 08:45:45;;;;;;;13.55;9.10;;;11.30;99.90;;;;;;5084558;28;20068;-62
2023/10/28 08:48:20;;;;;;;17.55;9.45;;;11.30;99.90;;;;;;5078179;28;20059;-62
2023/10/28 08:50:53;;;;;;;13.00;8.90;;;11.30;99.90;;;;;;5084793;28;20562;-62
2023/10/28 08:53:21;;;;;;;11.55;8.27;;;11.30;99.90;;;;;;5080977;28;20087;-61
2023/10/28 08:55:49;;;;;;;16.85;9.05;;;11.30;99.90;;;;;;5083569;28;20576;-62
2023/10/28 08:58:18;;;;;;;12.25;8.65;;;11.30;99.90;;;;;;5085062;28;20119;-62
2023/10/28 09:00:47;;;;;;;15.52;8.45;;;11.30;99.90;;;;;;5081450;28;20044;-62
2023/10/28 09:03:15;;;;;;;15.90;9.00;;;11.30;99.90;;;;;;5080685;28;20097;-62
2023/10/28 09:05:41;;;;;;;17.70;8.95;;;11.30;99.90;;;;;;5086149;28;20740;-62
2023/10/28 09:08:07;;;;;;;16.13;8.00;;;11.40;99.90;;;;;;5084357;28;20054;-62
2023/10/28 09:10:34;;;;;;;13.60;8.65;;;11.40;99.90;;;;;;5085254;28;20039;-62
2023/10/28 09:13:06;;;;;;;12.43;8.27;;;11.50;99.90;;;;;;5084028;28;20126;-62
2023/10/28 09:15:33;;;;;;;11.88;8.35;;;11.40;99.90;;;;;;5081349;28;20051;-62
2023/10/28 09:18:01;;;;;;;14.65;8.55;;;11.50;99.90;;;;;;5089110;28;20032;-62
2023/10/28 09:20:27;;;;;;;17.42;9.07;;;11.50;99.90;;;;;;5084696;28;20036;-62
2023/10/28 09:22:53;;;;;;;15.02;8.18;;;11.50;99.90;;;;;;5087556;28;20040;-62
2023/10/28 09:25:21;;;;;;;18.00;9.45;;;11.50;99.90;;;;;;5087775;28;20046;-62
2023/10/28 09:27:48;;;;;;;11.10;8.23;;;11.60;99.90;;;;;;5087101;28;20044;-62
2023/10/28 09:30:15;;;;;;;13.23;7.88;;;11.50;99.90;;;;;;5082914;28;20058;-62
2023/10/28 09:32:41;;;;;;;13.65;8.15;;;11.60;99.90;;;;;;5081016;28;20102;-62
2023/10/28 09:35:09;;;;;;;12.77;8.07;;;11.60;99.90;;;;;;5082991;28;20048;-62
2023/10/28 09:37:39;;;;;;;11.18;7.95;;;11.60;99.90;;;;;;5084353;28;20041;-62
2023/10/28 09:40:12;;;;;;;15.13;8.15;;;11.60;99.90;;;;;;5065824;28;20036;-62
2023/10/28 09:42:39;;;;;;;15.40;8.05;;;11.70;99.90;;;;;;5080674;28;20048;-62
2023/10/28 09:45:08;;;;;;;15.75;8.50;;;11.70;99.90;;;;;;5087710;28;20036;-62
2023/10/28 09:47:39;;;;;;;16.60;9.18;;;11.70;99.90;;;;;;5084299;28;20050;-62
2023/10/28 09:50:09;;;;;;;13.38;9.10;;;11.70;99.90;;;;;;5082831;28;20050;-62
2023/10/28 09:52:38;;;;;;;12.38;8.20;;;11.70;99.90;;;;;;5082353;28;20047;-62
2023/10/28 09:55:09;;;;;;;11.65;7.65;;;11.80;99.90;;;;;;5080403;28;20550;-62
2023/10/28 09:57:36;;;;;;;12.45;7.72;;;11.80;99.90;;;;;;5084333;28;20044;-62
2023/10/28 10:00:09;;;;;;;10.40;7.70;;;11.80;99.90;;;;;;5084613;28;20044;-62
2023/10/28 10:02:59;;;;;;;14.88;7.75;;;11.80;99.90;;;;;;5082327;28;20640;-62
2023/10/28 10:05:40;;;;;;;10.63;7.72;;;11.80;99.90;;;;;;5078971;28;20052;-62
2023/10/28 10:08:22;;;;;;;9.30;7.43;;;11.90;99.90;;;;;;5099793;28;20130;-62
2023/10/28 10:10:53;;;;;;;13.07;7.60;;;11.90;99.90;;;;;;5073673;28;20483;-62
2023/10/28 10:13:19;;;;;;;11.38;7.15;;;11.90;99.90;;;;;;5080466;28;20161;-62
2023/10/28 10:15:54;;;;;;;13.15;7.65;;;12.00;99.90;;;;;;5076689;28;20044;-62
2023/10/28 10:18:37;;;;;;;11.73;7.40;;;12.00;99.90;;;;;;5077121;28;20047;-62
2023/10/28 10:21:05;;;;;;;12.50;7.60;;;12.00;99.90;;;;;;5082019;28;20048;-62
2023/10/28 10:23:42;;;;;;;13.35;7.47;;;12.00;99.90;;;;;;5083359;28;20043;-62
2023/10/28 10:26:07;;;;;;;11.38;6.90;;;12.00;99.90;;;;;;5064949;28;20055;-62
2023/10/28 10:28:43;;;;;;;17.27;6.95;;;12.00;99.90;;;;;;5065465;28;20043;-62
2023/10/28 10:31:09;;;;;;;14.50;6.72;;;12.00;99.90;;;;;;5085749;28;20039;-62
2023/10/28 10:33:35;;;;;;;14.73;6.40;;;12.10;99.90;;;;;;5083596;28;20129;-62
2023/10/28 10:36:01;;;;;;;9.63;6.90;;;12.10;99.90;;;;;;5079936;28;20080;-62
2023/10/28 10:38:30;;;;;;;13.27;7.25;;;12.20;99.90;;;;;;5069251;28;20085;-62
2023/10/28 10:41:00;;;;;;;14.45;6.78;;;12.20;99.90;;;;;;5080664;28;20560;-62
2023/10/28 10:43:32;;;;;;;9.98;6.18;;;12.20;99.90;;;;;;5067994;28;20044;-62
2023/10/28 10:45:58;;;;;;;13.98;6.80;;;12.20;99.90;;;;;;5082532;28;20040;-62
2023/10/28 10:48:26;;;;;;;9.57;6.25;;;12.30;99.90;;;;;;5083482;28;20040;-62
2023/10/28 10:50:51;;;;;;;8.95;6.25;;;12.30;99.90;;;;;;5083448;28;20048;-62
2023/10/28 10:53:17;;;;;;;14.23;6.18;;;12.30;99.90;;;;;;5078940;28;20047;-62
2023/10/28 10:55:43;;;;;;;13.45;5.68;;;12.30;99.90;;;;;;5082615;28;20588;-62
2023/10/28 10:58:08;;;;;;;14.25;6.13;;;12.30;99.90;;;;;;5085154;28;20089;-62
2023/10/28 11:00:34;;;;;;;11.50;6.60;;;12.30;99.90;;;;;;5085476;28;20363;-62
2023/10/28 11:03:03;;;;;;;10.82;5.88;;;12.30;99.90;;;;;;5084287;28;20020;-62
2023/10/28 11:05:30;;;;;;;10.50;6.53;;;12.40;99.90;;;;;;5085270;28;20044;-62
2023/10/28 11:07:56;;;;;;;8.50;5.93;;;12.40;99.90;;;;;;5086187;28;20040;-62
2023/10/28 11:10:23;;;;;;;11.38;5.63;;;12.40;99.90;;;;;;5086921;28;20624;-62
2023/10/28 11:12:50;;;;;;;9.05;6.13;;;12.40;99.90;;;;;;5082783;28;20136;-62
2023/10/28 11:15:16;;;;;;;10.85;6.18;;;12.40;99.90;;;;;;5068048;28;20384;-62
2023/10/28 11:17:42;;;;;;;13.40;6.40;;;12.40;99.90;;;;;;5083352;28;20096;-63
2023/10/28 11:20:11;;;;;;;14.05;6.82;;;12.30;99.90;;;;;;5083025;28;20040;-62
2023/10/28 11:22:37;;;;;;;13.88;5.55;;;12.30;99.90;;;;;;5080519;28;20043;-62
2023/10/28 11:25:04;;;;;;;11.35;4.88;;;12.30;99.90;;;;;;5083125;28;20048;-62
2023/10/28 11:27:31;;;;;;;11.00;5.47;;;12.30;99.90;;;;;;5085796;28;20028;-62
2023/10/28 11:29:58;;;;;;;9.43;5.63;;;12.30;99.90;;;;;;5079452;28;20111;-62
2023/10/28 11:32:26;;;;;;;13.48;5.80;;;12.40;99.90;;;;;;5083928;28;20152;-62
2023/10/28 11:34:54;;;;;;;14.05;5.90;;;12.40;99.90;;;;;;5082267;28;20083;-62
2023/10/28 11:37:20;;;;;;;14.75;5.90;;;12.40;99.90;;;;;;5090094;28;20068;-62
2023/10/28 11:39:47;;;;;;;8.80;4.72;;;12.40;99.90;;;;;;5084790;28;20078;-62
2023/10/28 11:42:16;;;;;;;10.63;5.53;;;12.50;99.90;;;;;;5082395;28;20024;-62
2023/10/28 11:44:47;;;;;;;10.43;5.40;;;12.50;99.90;;;;;;5084536;28;20036;-62
2023/10/28 11:47:13;;;;;;;8.35;4.95;;;12.50;99.90;;;;;;5078009;28;20411;-62
2023/10/28 11:49:39;;;;;;;14.63;5.53;;;12.60;99.90;;;;;;5087347;28;20043;-62
2023/10/28 11:52:05;;;;;;;16.67;4.95;;;12.60;99.90;;;;;;5088436;28;20530;-62
2023/10/28 11:54:33;;;;;;;11.93;5.10;;;12.70;99.90;;;;;;5081104;28;20115;-63
2023/10/28 11:56:59;;;;;;;11.90;4.95;;;12.70;99.90;;;;;;5085515;28;20043;-62
2023/10/28 11:59:24;;;;;;;9.55;5.20;;;12.70;99.90;;;;;;5085763;28;20040;-62
2023/10/28 12:01:52;;;;;;;11.07;5.07;;;12.70;99.90;;;;;;5084752;28;20051;-62
2023/10/28 12:04:20;;;;;;;10.23;5.07;;;12.70;99.90;;;;;;5065903;28;20429;-62
2023/10/28 12:06:47;;;;;;;10.30;5.47;;;12.70;99.90;;;;;;5051544;28;20097;-62
2023/10/28 12:09:13;;;;;;;14.60;4.97;;;12.70;99.90;;;;;;5086827;28;20495;-62
2023/10/28 12:11:40;;;;;;;9.68;4.78;;;12.70;99.90;;;;;;5083646;28;20131;-62
2023/10/28 12:14:10;;;;;;;12.27;4.63;;;12.70;99.90;;;;;;5084241;28;20044;-62
2023/10/28 12:16:40;;;;;;;10.93;4.65;;;12.80;99.90;;;;;;5085577;28;20483;-62
2023/10/28 12:19:06;;;;;;;12.68;5.63;;;12.80;99.90;;;;;;5100148;28;20036;-62
2023/10/28 12:21:33;;;;;;;16.80;9.43;;;12.90;99.90;;;;;;5067577;28;20067;-62
2023/10/28 12:23:59;;;;;;;11.48;5.55;;;12.90;99.90;;;;;;5060683;28;20039;-62
2023/10/28 12:26:25;;;;;;;10.55;4.88;;;12.90;99.90;;;;;;5074449;28;20582;-62
2023/10/28 12:28:52;;;;;;;9.75;4.85;;;12.90;99.90;;;;;;5080870;28;20047;-62
2023/10/28 12:31:19;;;;;;;10.95;4.82;;;12.90;99.90;;;;;;5082726;28;20051;-62
2023/10/28 12:33:44;;;;;;;11.18;4.90;;;12.90;99.90;;;;;;5082353;28;20103;-62